Dutton, Michigan
Current Conditions -  °F | °C
As of 2:53 PM on Thursday 18 Dec 2014 (Local Time) from KGRR Reporting Station
Overcast Overcast  
Wind Chill: 25°   Ceiling: 2400
Heat Index: 32°   Visibility: 10mi
Dew Point: 28°   Wind: 8mph
Humidity: 85%   Direction: 230°SW
Pressure: 30.16"   Gusts: NA
Location:  42.7912°N, 85.5517°W
Report Text: KGRR 181953Z 23007KT 10SM FEW010 BKN024 OVC032 00/M02 A3016 RMK AO2 SLP222 T00001022
Loading
Personal Weather Stations






























Interactive Weather Map New forecast layout! Learn more

10-Day Weather Forecast

Advertisements
Track Severe Weather on mobile